Time;durP1;ratioP1;P1;durP2;ratioP2;P2;SDS_P1;SDS_P2;PMS_P1;PMS_P2;Temp;Humidity;BMP_temperature;BMP_pressure;BME280_temperature;BME280_humidity;BME280_pressure;Samples;Min_cycle;Max_cycle;Signal;HPM_P1;HPM_P2
2023/07/16 00:01:23;;;;;;;80.78;22.75;;;;;;;;;;5043435;28;20029;-59
2023/07/16 00:03:50;;;;;;;76.22;21.80;;;;;;;;;;5047340;28;20029;-59
2023/07/16 00:06:17;;;;;;;80.35;22.40;;;;;;;;;;5053903;28;20074;-59
2023/07/16 00:08:44;;;;;;;66.03;21.63;;;;;;;;;;5053463;28;20078;-60
2023/07/16 00:11:11;;;;;;;69.90;19.77;;;;;;;;;;5040737;28;20060;-59
2023/07/16 00:13:38;;;;;;;56.20;19.08;;;;;;;;;;5053541;28;20040;-60
2023/07/16 00:16:05;;;;;;;65.10;18.80;;;;;;;;;;5051473;28;20124;-60
2023/07/16 00:18:32;;;;;;;66.93;19.02;;;;;;;;;;5048396;28;20261;-60
2023/07/16 00:20:59;;;;;;;51.10;17.38;;;;;;;;;;5020587;28;20033;-61
2023/07/16 00:23:26;;;;;;;54.88;18.38;;;;;;;;;;5033617;28;20147;-59
2023/07/16 00:25:53;;;;;;;59.72;19.75;;;;;;;;;;5050361;28;20032;-60
2023/07/16 00:28:20;;;;;;;86.45;24.98;;;;;;;;;;5053549;28;20059;-61
2023/07/16 00:30:48;;;;;;;107.43;33.67;;;;;;;;;;5053204;28;20052;-61
2023/07/16 00:33:15;;;;;;;143.23;39.40;;;;;;;;;;5053339;28;20096;-60
2023/07/16 00:35:48;;;;;;;143.68;41.60;;;;;;;;;;5053284;28;20060;-60
2023/07/16 00:38:16;;;;;;;138.60;42.10;;;;;;;;;;5053178;28;20040;-60
2023/07/16 00:40:43;;;;;;;127.28;39.67;;;;;;;;;;5052365;28;20505;-60
2023/07/16 00:43:10;;;;;;;134.00;38.72;;;;;;;;;;5052780;28;20087;-60
2023/07/16 00:45:37;;;;;;;106.05;36.30;;;;;;;;;;5052866;28;20044;-60
2023/07/16 00:48:06;;;;;;;118.28;36.28;;;;;;;;;;5044054;28;20088;-60
2023/07/16 00:50:34;;;;;;;113.82;34.65;;;;;;;;;;5048455;28;20025;-61
2023/07/16 00:53:04;;;;;;;103.28;32.30;;;;;;;;;;5041613;28;20039;-61
2023/07/16 00:55:31;;;;;;;86.45;30.55;;;;;;;;;;5052480;28;20040;-61
2023/07/16 00:58:07;;;;;;;100.88;31.88;;;;;;;;;;5052547;28;20082;-62
2023/07/16 01:00:38;;;;;;;90.00;29.60;;;;;;;;;;5052761;28;20431;-61
2023/07/16 01:03:07;;;;;;;88.03;28.25;;;;;;;;;;5052694;28;20028;-61
2023/07/16 01:05:44;;;;;;;86.13;28.73;;;;;;;;;;5052576;28;20037;-61
2023/07/16 01:08:12;;;;;;;81.50;26.45;;;;;;;;;;5052591;28;20032;-61
2023/07/16 01:10:40;;;;;;;76.00;26.35;;;;;;;;;;5052045;28;20052;-61
2023/07/16 01:13:07;;;;;;;81.75;26.40;;;;;;;;;;5051940;28;20037;-61
2023/07/16 01:15:34;;;;;;;73.85;25.35;;;;;;;;;;5051476;28;20025;-61
2023/07/16 01:18:01;;;;;;;66.93;25.05;;;;;;;;;;5052607;28;20470;-61
2023/07/16 01:20:28;;;;;;;70.85;24.65;;;;;;;;;;5051760;28;20036;-61
2023/07/16 01:23:14;;;;;;;61.33;23.00;;;;;;;;;;5051480;28;20082;-61
2023/07/16 01:26:03;;;;;;;69.50;23.92;;;;;;;;;;5051452;28;20021;-61
2023/07/16 01:28:36;;;;;;;72.07;23.67;;;;;;;;;;5049403;28;20140;-61
2023/07/16 01:31:03;;;;;;;64.13;22.42;;;;;;;;;;5049916;28;20152;-61
2023/07/16 01:33:34;;;;;;;63.05;22.17;;;;;;;;;;5050254;28;20127;-61
2023/07/16 01:36:02;;;;;;;61.85;22.00;;;;;;;;;;5033192;28;20064;-61
2023/07/16 01:38:29;;;;;;;54.78;20.33;;;;;;;;;;5051069;28;20059;-61
2023/07/16 01:40:56;;;;;;;56.58;21.05;;;;;;;;;;5050993;28;20273;-61
2023/07/16 01:43:23;;;;;;;58.05;21.15;;;;;;;;;;5051021;28;20025;-61
2023/07/16 01:45:50;;;;;;;56.13;20.35;;;;;;;;;;5050977;28;20022;-62
2023/07/16 01:48:39;;;;;;;54.28;21.42;;;;;;;;;;5029424;28;20461;-61
2023/07/16 01:51:06;;;;;;;54.92;20.88;;;;;;;;;;5050578;28;20047;-61
2023/07/16 01:53:33;;;;;;;56.92;20.65;;;;;;;;;;5050264;28;20033;-61
2023/07/16 01:56:02;;;;;;;51.78;18.95;;;;;;;;;;5049598;28;20035;-61
2023/07/16 01:58:29;;;;;;;53.17;18.65;;;;;;;;;;5049875;28;20072;-61
2023/07/16 02:00:56;;;;;;;48.00;18.15;;;;;;;;;;5050003;28;20052;-61
2023/07/16 02:03:23;;;;;;;47.35;19.55;;;;;;;;;;5050581;28;20025;-61
2023/07/16 02:05:50;;;;;;;47.13;18.05;;;;;;;;;;5049418;28;21423;-61
2023/07/16 02:08:20;;;;;;;47.42;19.05;;;;;;;;;;5050549;28;20510;-61
2023/07/16 02:10:50;;;;;;;41.88;17.30;;;;;;;;;;5050468;28;20372;-61
2023/07/16 02:13:17;;;;;;;45.60;17.42;;;;;;;;;;5050486;28;20028;-61
2023/07/16 02:15:44;;;;;;;45.00;17.55;;;;;;;;;;5051668;28;20040;-60
2023/07/16 02:18:12;;;;;;;40.45;16.60;;;;;;;;;;5051769;28;20041;-61
2023/07/16 02:20:39;;;;;;;39.33;16.80;;;;;;;;;;5051722;28;20502;-61
2023/07/16 02:23:06;;;;;;;41.50;15.90;;;;;;;;;;5051597;28;20032;-61
2023/07/16 02:25:33;;;;;;;42.70;16.15;;;;;;;;;;5051578;28;20092;-61
2023/07/16 02:28:01;;;;;;;40.20;16.65;;;;;;;;;;5051643;28;20024;-61
2023/07/16 02:30:28;;;;;;;45.15;16.77;;;;;;;;;;5051289;28;20060;-61
2023/07/16 02:32:55;;;;;;;41.25;15.35;;;;;;;;;;5051352;28;20045;-61
2023/07/16 02:35:22;;;;;;;37.08;15.60;;;;;;;;;;5051295;28;20025;-61
2023/07/16 02:37:49;;;;;;;37.65;15.00;;;;;;;;;;5051596;28;20491;-61
2023/07/16 02:40:16;;;;;;;44.20;15.80;;;;;;;;;;5050827;28;20498;-61
2023/07/16 02:42:44;;;;;;;40.30;15.35;;;;;;;;;;5051574;28;20032;-61
2023/07/16 02:45:11;;;;;;;33.03;13.48;;;;;;;;;;5051468;28;20033;-61
2023/07/16 02:47:38;;;;;;;34.50;13.68;;;;;;;;;;5051454;28;20037;-61
2023/07/16 02:50:05;;;;;;;35.75;14.88;;;;;;;;;;5051169;28;20078;-61
2023/07/16 02:52:32;;;;;;;36.20;13.75;;;;;;;;;;5051300;28;20781;-61
2023/07/16 02:54:59;;;;;;;35.50;13.82;;;;;;;;;;5051175;28;20478;-62
2023/07/16 02:57:26;;;;;;;33.50;14.10;;;;;;;;;;5051044;28;20033;-61
2023/07/16 02:59:53;;;;;;;31.00;12.55;;;;;;;;;;5051097;28;20590;-61
2023/07/16 03:02:20;;;;;;;32.47;13.43;;;;;;;;;;5051236;28;20032;-61
2023/07/16 03:04:47;;;;;;;31.23;13.13;;;;;;;;;;5051288;28;20116;-61
2023/07/16 03:07:14;;;;;;;28.67;12.98;;;;;;;;;;5051275;28;20104;-61
2023/07/16 03:09:41;;;;;;;31.25;12.18;;;;;;;;;;5051084;28;20101;-61
2023/07/16 03:12:08;;;;;;;29.42;12.40;;;;;;;;;;5051053;28;20044;-61
2023/07/16 03:14:35;;;;;;;31.55;12.50;;;;;;;;;;5051182;28;20071;-61
2023/07/16 03:17:02;;;;;;;33.83;12.48;;;;;;;;;;5051032;28;20029;-61
2023/07/16 03:19:29;;;;;;;28.40;12.30;;;;;;;;;;5051161;28;20035;-61
2023/07/16 03:21:56;;;;;;;25.85;11.60;;;;;;;;;;5051084;28;20028;-61
2023/07/16 03:24:23;;;;;;;32.58;12.10;;;;;;;;;;5051195;28;20091;-61
2023/07/16 03:26:50;;;;;;;27.35;11.27;;;;;;;;;;5033192;28;20398;-61
2023/07/16 03:29:17;;;;;;;26.80;11.50;;;;;;;;;;5050984;28;20024;-61
2023/07/16 03:31:44;;;;;;;25.35;10.90;;;;;;;;;;5032963;28;20048;-61
2023/07/16 03:34:11;;;;;;;28.30;11.30;;;;;;;;;;5050996;28;20036;-61
2023/07/16 03:36:38;;;;;;;27.02;11.07;;;;;;;;;;5051018;28;20094;-61
2023/07/16 03:39:05;;;;;;;22.83;10.68;;;;;;;;;;5051017;28;20033;-61
2023/07/16 03:41:32;;;;;;;26.95;10.40;;;;;;;;;;5051051;28;20090;-61
2023/07/16 03:43:59;;;;;;;23.38;10.30;;;;;;;;;;5050934;28;20029;-61
2023/07/16 03:46:26;;;;;;;23.33;9.82;;;;;;;;;;5051228;28;20537;-61
2023/07/16 03:48:54;;;;;;;24.10;10.02;;;;;;;;;;5050874;28;20029;-61
2023/07/16 03:51:21;;;;;;;26.52;10.32;;;;;;;;;;5053472;28;20033;-61
2023/07/16 03:53:48;;;;;;;22.75;9.73;;;;;;;;;;5054627;28;20486;-61
2023/07/16 03:56:15;;;;;;;23.25;9.45;;;;;;;;;;5054476;28;20104;-61
2023/07/16 03:58:42;;;;;;;22.77;9.23;;;;;;;;;;5054512;28;20082;-61
2023/07/16 04:01:09;;;;;;;25.75;10.10;;;;;;;;;;5054429;28;20032;-61
2023/07/16 04:03:36;;;;;;;20.70;9.50;;;;;;;;;;5054479;28;20175;-61
2023/07/16 04:06:04;;;;;;;25.83;9.88;;;;;;;;;;5054363;28;20090;-61
2023/07/16 04:08:31;;;;;;;19.65;8.88;;;;;;;;;;5054327;28;20032;-61
2023/07/16 04:10:58;;;;;;;21.88;8.70;;;;;;;;;;5054193;28;20251;-61
2023/07/16 04:13:25;;;;;;;21.38;9.32;;;;;;;;;;5054250;28;20037;-61
2023/07/16 04:15:54;;;;;;;18.65;8.35;;;;;;;;;;5054213;28;20041;-61
2023/07/16 04:18:22;;;;;;;21.02;8.68;;;;;;;;;;5054277;28;20039;-61
2023/07/16 04:20:49;;;;;;;22.27;9.05;;;;;;;;;;5053950;28;20058;-61
2023/07/16 04:23:16;;;;;;;19.70;8.93;;;;;;;;;;5054021;28;20029;-61
2023/07/16 04:25:43;;;;;;;18.90;8.30;;;;;;;;;;5053765;28;20040;-61
2023/07/16 04:28:11;;;;;;;19.15;8.32;;;;;;;;;;5053996;28;20037;-61
2023/07/16 04:30:38;;;;;;;19.70;7.95;;;;;;;;;;5053769;28;20036;-61
2023/07/16 04:33:06;;;;;;;16.30;7.95;;;;;;;;;;5053656;28;20103;-60
2023/07/16 04:35:34;;;;;;;18.67;7.97;;;;;;;;;;5053873;28;20051;-61
2023/07/16 04:38:00;;;;;;;16.23;7.25;;;;;;;;;;5053730;28;20021;-61
2023/07/16 04:40:28;;;;;;;17.27;7.57;;;;;;;;;;5053650;28;20398;-61
2023/07/16 04:42:55;;;;;;;16.45;7.00;;;;;;;;;;5053669;28;20594;-61
2023/07/16 04:45:22;;;;;;;17.35;7.53;;;;;;;;;;5053598;28;20055;-61
2023/07/16 04:47:49;;;;;;;14.38;6.70;;;;;;;;;;5053452;28;20465;-61
2023/07/16 04:50:16;;;;;;;16.77;6.57;;;;;;;;;;5053410;28;20552;-61
2023/07/16 04:52:43;;;;;;;16.92;6.93;;;;;;;;;;5053482;28;20029;-61
2023/07/16 04:55:12;;;;;;;14.00;6.55;;;;;;;;;;5053401;28;20438;-61
2023/07/16 04:57:39;;;;;;;14.82;6.28;;;;;;;;;;5053182;28;20033;-61
2023/07/16 05:00:06;;;;;;;12.80;6.32;;;;;;;;;;5053302;28;20033;-61
2023/07/16 05:02:34;;;;;;;13.63;6.15;;;;;;;;;;5052872;28;20025;-61
2023/07/16 05:05:01;;;;;;;12.38;5.85;;;;;;;;;;5053250;28;20075;-61
2023/07/16 05:07:28;;;;;;;11.10;5.75;;;;;;;;;;5053188;28;20120;-62
2023/07/16 05:09:55;;;;;;;13.65;6.03;;;;;;;;;;5053041;28;20446;-61
2023/07/16 05:12:22;;;;;;;12.32;5.97;;;;;;;;;;5053422;28;20025;-61
2023/07/16 05:14:49;;;;;;;12.38;5.93;;;;;;;;;;5052780;28;20036;-61
2023/07/16 05:17:16;;;;;;;12.48;5.35;;;;;;;;;;5053026;28;20098;-61
2023/07/16 05:19:44;;;;;;;11.70;5.38;;;;;;;;;;5052918;28;20503;-61
2023/07/16 05:22:11;;;;;;;11.88;5.28;;;;;;;;;;5052804;28;20562;-61
2023/07/16 05:24:38;;;;;;;13.88;5.90;;;;;;;;;;5052892;28;20104;-61
2023/07/16 05:27:05;;;;;;;10.95;5.32;;;;;;;;;;5052744;28;20032;-61
2023/07/16 05:29:32;;;;;;;11.55;5.28;;;;;;;;;;5052659;28;20100;-61
2023/07/16 05:31:59;;;;;;;12.15;5.43;;;;;;;;;;5052565;28;20055;-61
2023/07/16 05:34:26;;;;;;;9.55;4.95;;;;;;;;;;5052770;28;20123;-61
2023/07/16 05:36:54;;;;;;;13.13;5.40;;;;;;;;;;5052652;28;20067;-61
2023/07/16 05:39:22;;;;;;;11.93;5.40;;;;;;;;;;5052548;28;20507;-61
2023/07/16 05:41:49;;;;;;;14.18;6.13;;;;;;;;;;5052581;28;20033;-61
2023/07/16 05:44:16;;;;;;;10.45;5.35;;;;;;;;;;5052365;28;20036;-61
2023/07/16 05:46:43;;;;;;;12.45;5.90;;;;;;;;;;5052490;28;20021;-61
2023/07/16 05:49:10;;;;;;;10.77;5.25;;;;;;;;;;5052340;28;20166;-61
2023/07/16 05:51:37;;;;;;;13.07;5.82;;;;;;;;;;5052330;28;20045;-61
2023/07/16 05:54:04;;;;;;;12.82;5.55;;;;;;;;;;5052396;28;20029;-61
2023/07/16 05:56:31;;;;;;;11.48;5.70;;;;;;;;;;5052348;28;20021;-60
2023/07/16 05:58:58;;;;;;;11.57;5.22;;;;;;;;;;5052184;28;20032;-61
2023/07/16 06:01:25;;;;;;;11.57;5.28;;;;;;;;;;5050779;28;20043;-61
2023/07/16 06:03:52;;;;;;;11.80;5.55;;;;;;;;;;5051925;28;20391;-61
2023/07/16 06:06:18;;;;;;;12.65;6.00;;;;;;;;;;5051905;28;20382;-61
2023/07/16 06:08:45;;;;;;;11.10;5.25;;;;;;;;;;5051996;28;20059;-61
2023/07/16 06:11:13;;;;;;;10.20;5.18;;;;;;;;;;5051950;28;20028;-61
2023/07/16 06:13:40;;;;;;;11.23;5.05;;;;;;;;;;5051094;28;20044;-61
2023/07/16 06:16:07;;;;;;;10.35;5.10;;;;;;;;;;5051979;28;20059;-61
2023/07/16 06:18:34;;;;;;;9.40;4.70;;;;;;;;;;5051865;28;20100;-61
2023/07/16 06:21:01;;;;;;;10.30;5.15;;;;;;;;;;5051636;28;20086;-61
2023/07/16 06:23:28;;;;;;;10.88;5.15;;;;;;;;;;5051812;28;20767;-61
2023/07/16 06:25:58;;;;;;;10.63;4.85;;;;;;;;;;5051708;28;20074;-61
2023/07/16 06:28:25;;;;;;;11.45;5.20;;;;;;;;;;5051804;28;20057;-61
2023/07/16 06:30:52;;;;;;;10.10;5.43;;;;;;;;;;5051435;28;20507;-61
2023/07/16 06:33:20;;;;;;;9.55;4.95;;;;;;;;;;5051499;28;20410;-61
2023/07/16 06:35:47;;;;;;;8.68;5.25;;;;;;;;;;5051485;28;20120;-61
2023/07/16 06:38:15;;;;;;;9.30;4.57;;;;;;;;;;5051578;28;20375;-61
2023/07/16 06:40:48;;;;;;;11.18;5.60;;;;;;;;;;5051533;28;20029;-61
2023/07/16 06:43:16;;;;;;;9.10;5.05;;;;;;;;;;5051573;28;20529;-61
2023/07/16 06:45:43;;;;;;;12.23;5.13;;;;;;;;;;5051622;28;20056;-61
2023/07/16 06:48:10;;;;;;;13.35;5.40;;;;;;;;;;5051490;28;20025;-61
2023/07/16 06:50:37;;;;;;;10.27;5.20;;;;;;;;;;5051463;28;20367;-61
2023/07/16 06:53:04;;;;;;;10.00;5.07;;;;;;;;;;5051564;28;20029;-61
2023/07/16 06:55:31;;;;;;;11.60;5.53;;;;;;;;;;5044546;28;20037;-61
2023/07/16 06:57:58;;;;;;;9.18;4.68;;;;;;;;;;5031498;28;20065;-61
2023/07/16 07:00:25;;;;;;;7.88;4.07;;;;;;;;;;5031475;28;20037;-61
2023/07/16 07:02:52;;;;;;;9.50;4.75;;;;;;;;;;5031413;28;20037;-61
2023/07/16 07:05:19;;;;;;;7.82;4.85;;;;;;;;;;5031482;28;20060;-61
2023/07/16 07:07:46;;;;;;;8.82;4.25;;;;;;;;;;5031494;28;20034;-61
2023/07/16 07:10:13;;;;;;;8.18;4.40;;;;;;;;;;5031168;28;20041;-61
2023/07/16 07:12:41;;;;;;;7.75;4.50;;;;;;;;;;5031444;28;20475;-61
2023/07/16 07:15:08;;;;;;;8.57;4.53;;;;;;;;;;5031459;28;20033;-61
2023/07/16 07:17:36;;;;;;;9.30;4.60;;;;;;;;;;5031337;28;20029;-61
2023/07/16 07:20:03;;;;;;;8.48;4.53;;;;;;;;;;5031337;28;20053;-61
2023/07/16 07:22:30;;;;;;;7.68;4.20;;;;;;;;;;5031393;28;20360;-61
2023/07/16 07:24:57;;;;;;;9.77;4.65;;;;;;;;;;5031750;28;20098;-61
2023/07/16 07:27:24;;;;;;;6.28;3.65;;;;;;;;;;5035198;28;20026;-61
2023/07/16 07:29:51;;;;;;;7.35;4.00;;;;;;;;;;5034927;28;20029;-61
2023/07/16 07:32:22;;;;;;;7.03;4.30;;;;;;;;;;5034892;28;20589;-61
2023/07/16 07:34:49;;;;;;;6.90;3.72;;;;;;;;;;5035076;28;20025;-61
2023/07/16 07:37:16;;;;;;;8.52;4.10;;;;;;;;;;5034975;28;20060;-61
2023/07/16 07:39:43;;;;;;;6.85;4.05;;;;;;;;;;5034837;28;20061;-61
2023/07/16 07:42:10;;;;;;;7.75;4.32;;;;;;;;;;5034961;28;20492;-61
2023/07/16 07:44:37;;;;;;;7.07;4.30;;;;;;;;;;5034904;28;20061;-61
2023/07/16 07:47:04;;;;;;;7.00;4.10;;;;;;;;;;5034789;28;20057;-61
2023/07/16 07:49:31;;;;;;;6.82;3.70;;;;;;;;;;5034627;28;20028;-61
2023/07/16 07:51:58;;;;;;;6.55;3.83;;;;;;;;;;5034591;28;20131;-61
2023/07/16 07:54:25;;;;;;;7.70;4.15;;;;;;;;;;5034643;28;20033;-61
2023/07/16 07:56:52;;;;;;;6.65;3.80;;;;;;;;;;5034676;28;20034;-61
2023/07/16 07:59:19;;;;;;;5.63;3.70;;;;;;;;;;5034631;28;20044;-61
2023/07/16 08:01:46;;;;;;;7.28;3.92;;;;;;;;;;5034430;28;20033;-61
2023/07/16 08:04:13;;;;;;;7.00;3.75;;;;;;;;;;5034409;28;20025;-61
2023/07/16 08:06:40;;;;;;;6.40;3.63;;;;;;;;;;5034466;28;20396;-61
2023/07/16 08:09:07;;;;;;;6.30;3.60;;;;;;;;;;5016512;28;20034;-61
2023/07/16 08:11:34;;;;;;;7.93;3.92;;;;;;;;;;5034379;28;20087;-61
2023/07/16 08:14:01;;;;;;;6.72;3.78;;;;;;;;;;5034322;28;20574;-61
2023/07/16 08:16:27;;;;;;;8.77;3.80;;;;;;;;;;5034223;28;20495;-61
2023/07/16 08:18:54;;;;;;;5.57;3.40;;;;;;;;;;5034110;28;20104;-61
2023/07/16 08:21:21;;;;;;;7.88;4.28;;;;;;;;;;5034161;28;20095;-61
2023/07/16 08:23:50;;;;;;;6.10;3.97;;;;;;;;;;5034137;28;20021;-61
2023/07/16 08:26:17;;;;;;;9.00;3.80;;;;;;;;;;5034102;28;20030;-61
2023/07/16 08:28:44;;;;;;;7.05;3.85;;;;;;;;;;5033835;28;20034;-61
2023/07/16 08:31:12;;;;;;;6.85;3.60;;;;;;;;;;5033658;28;20037;-61
2023/07/16 08:33:40;;;;;;;6.38;3.88;;;;;;;;;;5033989;28;20036;-61
2023/07/16 08:36:07;;;;;;;7.68;3.75;;;;;;;;;;5033763;28;20041;-61
2023/07/16 08:38:34;;;;;;;7.15;3.97;;;;;;;;;;5033163;28;20040;-61
2023/07/16 08:41:01;;;;;;;6.32;3.88;;;;;;;;;;5033845;28;20029;-60
2023/07/16 08:43:29;;;;;;;6.55;4.15;;;;;;;;;;5033796;28;20073;-61
2023/07/16 08:45:57;;;;;;;6.88;3.53;;;;;;;;;;5016356;28;20589;-61
2023/07/16 08:48:24;;;;;;;7.22;3.70;;;;;;;;;;5033762;28;20036;-61
2023/07/16 08:50:51;;;;;;;5.85;3.40;;;;;;;;;;5033409;28;20398;-61
2023/07/16 08:53:18;;;;;;;7.13;4.03;;;;;;;;;;5033619;28;20032;-61
2023/07/16 08:55:46;;;;;;;6.80;3.90;;;;;;;;;;5033389;28;20489;-61
2023/07/16 08:58:17;;;;;;;4.50;3.22;;;;;;;;;;5033519;28;20101;-61
2023/07/16 09:00:45;;;;;;;6.63;3.87;;;;;;;;;;5033391;28;20049;-61
2023/07/16 09:03:18;;;;;;;6.72;3.50;;;;;;;;;;5033464;28;20546;-61
2023/07/16 09:05:48;;;;;;;4.97;3.30;;;;;;;;;;5033397;28;20360;-61
2023/07/16 09:08:15;;;;;;;5.88;3.58;;;;;;;;;;5033149;28;20040;-62
2023/07/16 09:10:42;;;;;;;5.38;3.50;;;;;;;;;;5015413;28;20465;-61
2023/07/16 09:13:10;;;;;;;4.85;3.30;;;;;;;;;;5033056;28;20038;-62
2023/07/16 09:15:38;;;;;;;6.03;3.25;;;;;;;;;;5033160;28;20025;-61
2023/07/16 09:18:05;;;;;;;6.72;3.63;;;;;;;;;;5032949;28;20043;-62
2023/07/16 09:20:32;;;;;;;6.32;3.22;;;;;;;;;;5032968;28;20033;-61
2023/07/16 09:23:00;;;;;;;4.95;3.08;;;;;;;;;;5033028;28;20025;-61
2023/07/16 09:25:30;;;;;;;6.53;3.58;;;;;;;;;;5032974;28;20051;-61
2023/07/16 09:28:03;;;;;;;6.32;3.38;;;;;;;;;;5032972;28;20029;-61
2023/07/16 09:30:34;;;;;;;5.57;3.15;;;;;;;;;;5032681;28;20041;-61
2023/07/16 09:33:16;;;;;;;4.82;2.92;;;;;;;;;;5032640;28;20503;-61
2023/07/16 09:35:43;;;;;;;5.20;3.03;;;;;;;;;;5015077;28;20037;-61
2023/07/16 09:38:10;;;;;;;4.78;2.72;;;;;;;;;;5032600;28;20033;-61
2023/07/16 09:40:38;;;;;;;4.95;2.90;;;;;;;;;;5032649;28;20037;-61
2023/07/16 09:43:05;;;;;;;4.80;3.22;;;;;;;;;;5032597;28;20029;-61
2023/07/16 09:45:32;;;;;;;5.47;2.85;;;;;;;;;;5032615;28;20496;-61
2023/07/16 09:47:59;;;;;;;5.70;3.28;;;;;;;;;;5032452;28;20037;-61
2023/07/16 09:50:28;;;;;;;4.93;2.70;;;;;;;;;;5032391;28;20116;-61
2023/07/16 09:52:56;;;;;;;6.13;3.08;;;;;;;;;;5032456;28;20030;-61
2023/07/16 09:55:24;;;;;;;5.30;2.75;;;;;;;;;;5032473;28;20037;-61
2023/07/16 09:57:53;;;;;;;5.55;2.80;;;;;;;;;;5032242;28;20033;-61
2023/07/16 10:00:20;;;;;;;4.60;2.58;;;;;;;;;;5032301;28;20491;-61
2023/07/16 10:02:47;;;;;;;5.07;2.83;;;;;;;;;;5032291;28;20108;-61
2023/07/16 10:05:21;;;;;;;4.65;2.70;;;;;;;;;;5032238;28;20037;-61
2023/07/16 10:07:58;;;;;;;4.32;2.55;;;;;;;;;;5032231;28;20065;-61
2023/07/16 10:10:27;;;;;;;4.07;2.58;;;;;;;;;;5031903;28;20133;-61
2023/07/16 10:12:58;;;;;;;4.85;2.67;;;;;;;;;;5031956;28;20040;-61
2023/07/16 10:15:28;;;;;;;4.95;2.40;;;;;;;;;;5032075;28;20059;-61
2023/07/16 10:17:55;;;;;;;4.45;2.47;;;;;;;;;;5032073;28;20079;-61
2023/07/16 10:20:48;;;;;;;4.40;2.53;;;;;;;;;;5031879;28;20078;-61
2023/07/16 10:23:15;;;;;;;;;;;;;;;;;;5029676;28;20044;-61
2023/07/16 10:25:42;;;;;;;3.33;2.30;;;;;;;;;;5031819;28;19909;-61
2023/07/16 10:28:09;;;;;;;3.60;2.30;;;;;;;;;;5031648;28;20080;-61
2023/07/16 10:30:36;;;;;;;4.40;2.40;;;;;;;;;;5031862;28;20036;-61
2023/07/16 10:33:07;;;;;;;4.13;2.30;;;;;;;;;;5031678;28;20503;-61
2023/07/16 10:35:36;;;;;;;3.65;2.15;;;;;;;;;;5031724;28;20395;-61
2023/07/16 10:38:03;;;;;;;4.68;2.05;;;;;;;;;;5031746;28;20025;-61
2023/07/16 10:40:30;;;;;;;3.30;2.10;;;;;;;;;;5031805;28;20040;-61
2023/07/16 10:42:58;;;;;;;4.10;2.00;;;;;;;;;;5031722;28;20047;-61
2023/07/16 10:45:25;;;;;;;4.45;2.03;;;;;;;;;;5031702;28;20036;-61
2023/07/16 10:47:53;;;;;;;4.38;2.10;;;;;;;;;;5031688;28;20097;-61
2023/07/16 10:50:22;;;;;;;3.42;2.05;;;;;;;;;;5031482;28;20037;-61
2023/07/16 10:52:52;;;;;;;2.42;1.80;;;;;;;;;;5031423;28;20025;-61
2023/07/16 10:55:19;;;;;;;2.78;2.13;;;;;;;;;;5031494;28;20056;-61
2023/07/16 10:57:52;;;;;;;3.83;1.70;;;;;;;;;;5031589;28;20030;-61
2023/07/16 11:00:19;;;;;;;3.08;2.00;;;;;;;;;;5032426;28;20033;-61
2023/07/16 11:02:46;;;;;;;1.95;1.50;;;;;;;;;;5035696;28;20498;-61
2023/07/16 11:05:14;;;;;;;3.17;1.98;;;;;;;;;;5035496;28;20048;-61
2023/07/16 11:07:45;;;;;;;2.65;1.83;;;;;;;;;;5035569;28;20033;-61
2023/07/16 11:10:12;;;;;;;2.75;1.90;;;;;;;;;;5035340;28;20131;-61
2023/07/16 11:12:39;;;;;;;2.85;1.90;;;;;;;;;;5035404;28;20045;-61
2023/07/16 11:15:06;;;;;;;2.67;1.75;;;;;;;;;;5035482;28;20104;-61
2023/07/16 11:17:33;;;;;;;4.22;2.00;;;;;;;;;;5035407;28;20423;-61
2023/07/16 11:20:02;;;;;;;2.70;1.60;;;;;;;;;;5035306;28;20030;-61
2023/07/16 11:22:29;;;;;;;3.50;1.55;;;;;;;;;;5035199;28;20033;-61
2023/07/16 11:24:56;;;;;;;3.25;1.70;;;;;;;;;;5035261;28;20387;-61
2023/07/16 11:27:24;;;;;;;3.10;1.85;;;;;;;;;;5035188;28;20029;-61
2023/07/16 11:29:56;;;;;;;4.15;1.67;;;;;;;;;;5035011;28;20025;-61
2023/07/16 11:32:36;;;;;;;3.28;1.60;;;;;;;;;;5034968;28;20057;-61
2023/07/16 11:35:07;;;;;;;2.03;1.60;;;;;;;;;;5035059;28;20113;-61
2023/07/16 11:37:35;;;;;;;2.58;1.45;;;;;;;;;;5035123;28;20036;-61
2023/07/16 11:40:07;;;;;;;1.77;1.27;;;;;;;;;;5034925;28;20113;-61
2023/07/16 11:42:35;;;;;;;2.90;1.55;;;;;;;;;;5034861;28;20033;-61
2023/07/16 11:45:02;;;;;;;3.83;1.40;;;;;;;;;;5035092;28;20175;-61
2023/07/16 11:47:29;;;;;;;1.98;1.30;;;;;;;;;;5034384;28;20052;-61
2023/07/16 11:49:56;;;;;;;2.08;1.20;;;;;;;;;;5034702;28;20475;-61
2023/07/16 11:52:27;;;;;;;2.30;1.40;;;;;;;;;;5034712;28;20052;-61
2023/07/16 11:54:54;;;;;;;2.47;1.20;;;;;;;;;;5034786;28;20025;-61
2023/07/16 11:57:22;;;;;;;1.85;1.20;;;;;;;;;;5034702;28;20030;-61
2023/07/16 11:59:49;;;;;;;2.88;1.50;;;;;;;;;;5034629;28;20029;-61
2023/07/16 12:02:16;;;;;;;2.72;1.40;;;;;;;;;;5034564;28;20104;-61
2023/07/16 12:04:43;;;;;;;1.73;1.08;;;;;;;;;;5034601;28;20051;-61
2023/07/16 12:07:10;;;;;;;2.22;1.25;;;;;;;;;;5034498;28;20025;-61
2023/07/16 12:09:37;;;;;;;2.00;1.38;;;;;;;;;;5034431;28;20033;-61
2023/07/16 12:12:04;;;;;;;1.70;1.15;;;;;;;;;;5033152;28;20550;-61
2023/07/16 12:14:31;;;;;;;1.58;1.13;;;;;;;;;;5034430;28;20498;-61
2023/07/16 12:16:58;;;;;;;1.98;1.20;;;;;;;;;;5034288;28;20030;-61
2023/07/16 12:19:26;;;;;;;1.73;1.20;;;;;;;;;;5034265;28;20483;-61
2023/07/16 12:21:53;;;;;;;1.65;1.17;;;;;;;;;;5034249;28;20041;-61
2023/07/16 12:24:20;;;;;;;1.70;1.10;;;;;;;;;;5034242;28;20033;-61
2023/07/16 12:26:47;;;;;;;1.40;1.10;;;;;;;;;;5034069;28;20124;-61
2023/07/16 12:29:14;;;;;;;1.90;1.27;;;;;;;;;;5034003;28;20037;-61
2023/07/16 12:31:40;;;;;;;1.50;1.10;;;;;;;;;;5033865;28;20042;-61
2023/07/16 12:34:07;;;;;;;1.95;1.00;;;;;;;;;;5034041;28;20040;-61
2023/07/16 12:36:34;;;;;;;1.35;1.00;;;;;;;;;;5031233;28;20388;-61
2023/07/16 12:39:01;;;;;;;1.55;1.10;;;;;;;;;;5033276;28;20056;-61
2023/07/16 12:41:28;;;;;;;2.42;1.10;;;;;;;;;;5032939;28;20037;-61
2023/07/16 12:43:55;;;;;;;1.90;1.27;;;;;;;;;;5032938;28;20068;-61
2023/07/16 12:46:22;;;;;;;2.45;1.00;;;;;;;;;;5032424;28;20026;-61
2023/07/16 12:48:49;;;;;;;1.17;0.90;;;;;;;;;;5032731;28;20026;-61
2023/07/16 12:51:16;;;;;;;2.42;1.27;;;;;;;;;;5032370;28;20079;-61
2023/07/16 12:53:43;;;;;;;2.25;1.25;;;;;;;;;;5033650;28;20032;-61
2023/07/16 12:56:10;;;;;;;1.67;1.20;;;;;;;;;;5033277;28;20033;-61
2023/07/16 12:58:38;;;;;;;1.58;0.88;;;;;;;;;;5032678;28;20025;-61
2023/07/16 13:01:05;;;;;;;2.25;1.20;;;;;;;;;;5032438;28;20036;-61
2023/07/16 13:03:32;;;;;;;1.77;0.82;;;;;;;;;;5031515;28;20025;-61
2023/07/16 13:05:59;;;;;;;2.33;1.17;;;;;;;;;;5030198;28;20132;-61
2023/07/16 13:08:26;;;;;;;3.72;1.17;;;;;;;;;;5032621;28;20033;-61
2023/07/16 13:10:54;;;;;;;1.10;0.90;;;;;;;;;;5032101;28;20049;-61
2023/07/16 13:13:21;;;;;;;2.70;1.13;;;;;;;;;;5031690;28;20192;-61
2023/07/16 13:15:48;;;;;;;4.22;1.30;;;;;;;;;;5031173;28;20515;-61
2023/07/16 13:18:16;;;;;;;1.40;1.00;;;;;;;;;;5031689;28;20037;-61
2023/07/16 13:20:43;;;;;;;2.15;1.17;;;;;;;;;;5031040;28;20490;-60
2023/07/16 13:23:11;;;;;;;3.38;1.13;;;;;;;;;;5030033;28;20025;-61
2023/07/16 13:25:38;;;;;;;2.00;1.17;;;;;;;;;;5031801;28;20179;-61
2023/07/16 13:28:06;;;;;;;1.77;0.95;;;;;;;;;;5031917;28;20527;-61
2023/07/16 13:30:33;;;;;;;1.35;0.80;;;;;;;;;;5032067;28;20033;-61
2023/07/16 13:33:01;;;;;;;1.00;0.90;;;;;;;;;;5031704;28;20053;-61
2023/07/16 13:35:28;;;;;;;1.33;1.05;;;;;;;;;;5029340;28;20037;-60
2023/07/16 13:37:55;;;;;;;3.78;1.00;;;;;;;;;;5031541;28;20476;-61
2023/07/16 13:40:22;;;;;;;3.20;1.00;;;;;;;;;;5032208;28;20033;-61
2023/07/16 13:42:49;;;;;;;1.73;1.05;;;;;;;;;;5032574;28;20395;-61
2023/07/16 13:45:16;;;;;;;1.65;1.10;;;;;;;;;;5032558;28;20032;-61
2023/07/16 13:47:43;;;;;;;3.05;0.90;;;;;;;;;;5031841;28;20032;-61
2023/07/16 13:50:10;;;;;;;2.08;0.80;;;;;;;;;;5030736;28;20045;-61
2023/07/16 13:52:37;;;;;;;2.95;0.90;;;;;;;;;;5032388;28;20028;-61
2023/07/16 13:55:05;;;;;;;2.13;1.00;;;;;;;;;;5032346;28;20052;-61
2023/07/16 13:57:32;;;;;;;2.35;0.80;;;;;;;;;;5032099;28;20033;-61
2023/07/16 14:00:00;;;;;;;3.97;1.10;;;;;;;;;;5022488;28;20061;-61
2023/07/16 14:02:27;;;;;;;8.43;1.10;;;;;;;;;;5032136;28;20041;-61
2023/07/16 14:04:54;;;;;;;3.05;1.20;;;;;;;;;;5031585;28;20021;-61
2023/07/16 14:07:21;;;;;;;10.90;1.30;;;;;;;;;;5031723;28;20092;-61
2023/07/16 14:09:48;;;;;;;3.63;1.17;;;;;;;;;;5027659;28;20033;-61
2023/07/16 14:12:15;;;;;;;6.40;1.10;;;;;;;;;;5015116;28;20113;-61
2023/07/16 14:14:42;;;;;;;3.15;0.90;;;;;;;;;;5031452;28;20398;-61
2023/07/16 14:17:09;;;;;;;4.07;1.20;;;;;;;;;;5031854;28;20060;-61
2023/07/16 14:19:36;;;;;;;4.32;1.20;;;;;;;;;;5031569;28;20487;-61
2023/07/16 14:22:04;;;;;;;5.57;1.40;;;;;;;;;;5031406;28;20033;-61
2023/07/16 14:24:31;;;;;;;8.15;1.40;;;;;;;;;;5031409;28;20422;-61
2023/07/16 14:27:02;;;;;;;3.60;1.58;;;;;;;;;;5027078;28;20041;-61
2023/07/16 14:29:29;;;;;;;6.07;1.30;;;;;;;;;;5011889;28;20537;-61
2023/07/16 14:31:56;;;;;;;6.63;1.45;;;;;;;;;;5016831;28;20050;-61
2023/07/16 14:34:24;;;;;;;3.97;1.40;;;;;;;;;;5031057;28;20506;-62
2023/07/16 14:36:51;;;;;;;3.20;1.20;;;;;;;;;;5024523;28;20487;-61